sensor_id;sensor_type;location;lat;lon;timestamp;pressure;altitude;pressure_sealevel;temperature;humidity
37066;BME280;22981;43.080;25.550;2023-06-05T06:14:41;100091.33;;;17.61;85.22
37066;BME280;22981;43.080;25.550;2023-06-05T06:17:09;100088.27;;;17.74;84.74
37066;BME280;22981;43.080;25.550;2023-06-05T06:19:37;100094.89;;;17.84;84.48
37066;BME280;22981;43.080;25.550;2023-06-05T06:22:05;100096.84;;;17.88;84.27
37066;BME280;22981;43.080;25.550;2023-06-05T06:24:34;100093.91;;;17.92;83.99
37066;BME280;22981;43.080;25.550;2023-06-05T06:27:02;100098.23;;;17.91;83.38
37066;BME280;22981;43.080;25.550;2023-06-05T06:29:30;100094.98;;;17.91;83.70
37066;BME280;22981;43.080;25.550;2023-06-05T06:31:58;100089.90;;;17.97;83.72
37066;BME280;22981;43.080;25.550;2023-06-05T06:34:26;100088.10;;;18.06;83.47
37066;BME280;22981;43.080;25.550;2023-06-05T06:36:54;100081.37;;;18.08;82.96
37066;BME280;22981;43.080;25.550;2023-06-05T06:39:22;100076.27;;;18.14;82.87
37066;BME280;22981;43.080;25.550;2023-06-05T06:41:51;100083.18;;;18.24;82.62
37066;BME280;22981;43.080;25.550;2023-06-05T06:44:20;100085.16;;;18.34;82.23
37066;BME280;22981;43.080;25.550;2023-06-05T06:46:48;100079.29;;;18.42;81.91
37066;BME280;22981;43.080;25.550;2023-06-05T06:49:15;100073.95;;;18.52;81.81
37066;BME280;22981;43.080;25.550;2023-06-05T06:51:43;100071.58;;;18.59;81.78
37066;BME280;22981;43.080;25.550;2023-06-05T06:54:10;100072.70;;;18.65;81.34
37066;BME280;22981;43.080;25.550;2023-06-05T06:56:38;100070.03;;;18.68;81.06
37066;BME280;22981;43.080;25.550;2023-06-05T06:59:10;100066.03;;;18.75;80.87
37066;BME280;22981;43.080;25.550;2023-06-05T07:01:43;100069.62;;;18.84;80.34
37066;BME280;22981;43.080;25.550;2023-06-05T07:04:15;100067.52;;;18.91;79.57
37066;BME280;22981;43.080;25.550;2023-06-05T07:06:47;100065.39;;;18.95;79.09
37066;BME280;22981;43.080;25.550;2023-06-05T07:09:15;100064.34;;;18.99;78.66
37066;BME280;22981;43.080;25.550;2023-06-05T07:11:42;100064.61;;;19.00;78.13
37066;BME280;22981;43.080;25.550;2023-06-05T07:14:10;100068.47;;;19.07;78.13
37066;BME280;22981;43.080;25.550;2023-06-05T07:16:38;100067.67;;;19.14;78.01
37066;BME280;22981;43.080;25.550;2023-06-05T07:19:05;100062.85;;;19.21;77.55
37066;BME280;22981;43.080;25.550;2023-06-05T07:21:34;100068.03;;;19.25;77.20
37066;BME280;22981;43.080;25.550;2023-06-05T07:24:04;100066.73;;;19.33;77.22
37066;BME280;22981;43.080;25.550;2023-06-05T07:26:31;100061.62;;;19.41;77.15
37066;BME280;22981;43.080;25.550;2023-06-05T07:28:59;100066.30;;;19.54;76.78
37066;BME280;22981;43.080;25.550;2023-06-05T07:31:27;100059.85;;;19.65;76.11
37066;BME280;22981;43.080;25.550;2023-06-05T07:33:56;100062.88;;;19.71;75.63
37066;BME280;22981;43.080;25.550;2023-06-05T07:36:24;100059.11;;;19.80;75.31
37066;BME280;22981;43.080;25.550;2023-06-05T07:38:51;100055.33;;;19.91;74.91
37066;BME280;22981;43.080;25.550;2023-06-05T07:41:19;100055.10;;;20.03;73.88
37066;BME280;22981;43.080;25.550;2023-06-05T07:43:47;100050.24;;;20.10;72.94
37066;BME280;22981;43.080;25.550;2023-06-05T07:46:15;100048.89;;;20.20;72.28
37066;BME280;22981;43.080;25.550;2023-06-05T07:48:42;100052.16;;;20.30;71.01
37066;BME280;22981;43.080;25.550;2023-06-05T07:51:10;100048.93;;;20.40;70.46
37066;BME280;22981;43.080;25.550;2023-06-05T07:53:37;100046.53;;;20.52;69.92
37066;BME280;22981;43.080;25.550;2023-06-05T07:56:06;100050.59;;;20.59;69.00
37066;BME280;22981;43.080;25.550;2023-06-05T07:58:33;100045.70;;;20.64;68.49
37066;BME280;22981;43.080;25.550;2023-06-05T08:01:01;100037.81;;;20.67;67.04
37066;BME280;22981;43.080;25.550;2023-06-05T08:03:30;100028.28;;;20.72;66.64
37066;BME280;22981;43.080;25.550;2023-06-05T08:05:57;100026.14;;;20.77;65.94
37066;BME280;22981;43.080;25.550;2023-06-05T08:08:25;100026.38;;;20.81;66.13
37066;BME280;22981;43.080;25.550;2023-06-05T08:10:52;100025.84;;;20.91;66.37
37066;BME280;22981;43.080;25.550;2023-06-05T08:13:20;100028.80;;;21.03;65.76
37066;BME280;22981;43.080;25.550;2023-06-05T08:15:47;100028.80;;;21.13;65.51
37066;BME280;22981;43.080;25.550;2023-06-05T08:18:15;100029.86;;;21.24;65.58
37066;BME280;22981;43.080;25.550;2023-06-05T08:20:43;100026.58;;;21.30;65.11
37066;BME280;22981;43.080;25.550;2023-06-05T08:23:11;100027.67;;;21.42;64.93
37066;BME280;22981;43.080;25.550;2023-06-05T08:25:39;100024.63;;;21.51;64.23
37066;BME280;22981;43.080;25.550;2023-06-05T08:28:07;100021.59;;;21.58;64.06
37066;BME280;22981;43.080;25.550;2023-06-05T08:30:34;100016.93;;;21.68;64.23
37066;BME280;22981;43.080;25.550;2023-06-05T08:33:02;100018.23;;;21.79;64.26
37066;BME280;22981;43.080;25.550;2023-06-05T08:35:30;100006.19;;;21.87;64.37
37066;BME280;22981;43.080;25.550;2023-06-05T08:37:57;100015.41;;;21.99;63.84
37066;BME280;22981;43.080;25.550;2023-06-05T08:40:27;100012.89;;;22.08;63.64
37066;BME280;22981;43.080;25.550;2023-06-05T08:42:55;100007.14;;;22.17;63.55
37066;BME280;22981;43.080;25.550;2023-06-05T08:45:23;100007.89;;;22.28;62.75
37066;BME280;22981;43.080;25.550;2023-06-05T08:47:51;100013.02;;;22.34;62.32
37066;BME280;22981;43.080;25.550;2023-06-05T08:50:18;100001.50;;;22.42;60.62
37066;BME280;22981;43.080;25.550;2023-06-05T08:52:46;99995.48;;;22.43;59.74
37066;BME280;22981;43.080;25.550;2023-06-05T08:55:15;99997.91;;;22.47;59.88
37066;BME280;22981;43.080;25.550;2023-06-05T08:57:43;99994.27;;;22.57;59.71
37066;BME280;22981;43.080;25.550;2023-06-05T09:00:11;99997.23;;;22.63;59.70
37066;BME280;22981;43.080;25.550;2023-06-05T09:02:41;99990.06;;;22.69;59.00
37066;BME280;22981;43.080;25.550;2023-06-05T09:05:16;99999.59;;;22.74;58.53
37066;BME280;22981;43.080;25.550;2023-06-05T09:07:44;99997.38;;;22.77;58.34
37066;BME280;22981;43.080;25.550;2023-06-05T09:10:28;99986.66;;;22.85;58.70
37066;BME280;22981;43.080;25.550;2023-06-05T09:12:58;99984.68;;;22.96;58.66
37066;BME280;22981;43.080;25.550;2023-06-05T09:15:31;99989.27;;;23.01;57.71
37066;BME280;22981;43.080;25.550;2023-06-05T09:18:04;99983.51;;;23.02;56.79
37066;BME280;22981;43.080;25.550;2023-06-05T09:20:34;99987.34;;;23.01;57.06
37066;BME280;22981;43.080;25.550;2023-06-05T09:23:03;99996.84;;;23.06;56.95
37066;BME280;22981;43.080;25.550;2023-06-05T09:25:46;99982.86;;;23.13;56.80
37066;BME280;22981;43.080;25.550;2023-06-05T09:28:17;99986.09;;;23.17;56.46
37066;BME280;22981;43.080;25.550;2023-06-05T09:30:57;99979.46;;;23.21;56.03
37066;BME280;22981;43.080;25.550;2023-06-05T09:33:29;99983.23;;;23.25;56.10
37066;BME280;22981;43.080;25.550;2023-06-05T09:36:08;99984.34;;;23.27;55.73
37066;BME280;22981;43.080;25.550;2023-06-05T09:38:38;99983.20;;;23.30;56.24
37066;BME280;22981;43.080;25.550;2023-06-05T09:41:08;99980.66;;;23.36;55.87
37066;BME280;22981;43.080;25.550;2023-06-05T09:43:37;99972.16;;;23.38;55.35
37066;BME280;22981;43.080;25.550;2023-06-05T09:46:08;99971.82;;;23.44;56.01
37066;BME280;22981;43.080;25.550;2023-06-05T09:48:37;99965.96;;;23.54;55.75
37066;BME280;22981;43.080;25.550;2023-06-05T09:51:12;99963.16;;;23.59;55.57
37066;BME280;22981;43.080;25.550;2023-06-05T09:53:47;99964.20;;;23.63;56.16
37066;BME280;22981;43.080;25.550;2023-06-05T09:56:17;99965.80;;;23.69;56.04
37066;BME280;22981;43.080;25.550;2023-06-05T09:58:47;99962.98;;;23.74;55.91
37066;BME280;22981;43.080;25.550;2023-06-05T10:01:22;99967.23;;;23.83;55.13
37066;BME280;22981;43.080;25.550;2023-06-05T10:03:51;99966.98;;;23.82;54.62
37066;BME280;22981;43.080;25.550;2023-06-05T10:06:18;99971.37;;;23.80;54.28
37066;BME280;22981;43.080;25.550;2023-06-05T10:08:49;99962.91;;;23.79;54.45
37066;BME280;22981;43.080;25.550;2023-06-05T10:11:22;99961.23;;;23.81;54.41
37066;BME280;22981;43.080;25.550;2023-06-05T10:13:51;99949.64;;;23.89;54.10
37066;BME280;22981;43.080;25.550;2023-06-05T10:16:20;99948.41;;;23.97;54.42
37066;BME280;22981;43.080;25.550;2023-06-05T10:18:49;99951.12;;;24.00;54.23
37066;BME280;22981;43.080;25.550;2023-06-05T10:21:18;99942.34;;;24.03;53.90
37066;BME280;22981;43.080;25.550;2023-06-05T10:23:52;99951.27;;;24.09;54.36
37066;BME280;22981;43.080;25.550;2023-06-05T10:29:42;99937.63;;;24.22;54.76
37066;BME280;22981;43.080;25.550;2023-06-05T10:37:38;99934.20;;;24.14;52.87
37066;BME280;22981;43.080;25.550;2023-06-05T10:40:06;99926.31;;;24.13;52.86
37066;BME280;22981;43.080;25.550;2023-06-05T10:42:36;99917.45;;;24.18;53.43
37066;BME280;22981;43.080;25.550;2023-06-05T10:45:04;99918.95;;;24.27;53.12
37066;BME280;22981;43.080;25.550;2023-06-05T10:50:19;99916.80;;;24.43;52.98
37066;BME280;22981;43.080;25.550;2023-06-05T10:52:53;99913.84;;;24.56;52.14
37066;BME280;22981;43.080;25.550;2023-06-05T10:55:22;99912.06;;;24.62;52.21
37066;BME280;22981;43.080;25.550;2023-06-05T11:00:31;99910.34;;;24.66;52.18
37066;BME280;22981;43.080;25.550;2023-06-05T11:02:59;99911.78;;;24.64;52.50
37066;BME280;22981;43.080;25.550;2023-06-05T11:05:28;99909.84;;;24.64;52.09
37066;BME280;22981;43.080;25.550;2023-06-05T11:08:13;99910.00;;;24.70;52.02
37066;BME280;22981;43.080;25.550;2023-06-05T11:11:03;99911.30;;;24.76;51.97
37066;BME280;22981;43.080;25.550;2023-06-05T11:13:54;99907.30;;;24.84;52.00
37066;BME280;22981;43.080;25.550;2023-06-05T11:16:33;99901.47;;;24.88;52.11
37066;BME280;22981;43.080;25.550;2023-06-05T11:22:08;99901.74;;;25.01;51.13
37066;BME280;22981;43.080;25.550;2023-06-05T11:24:38;99899.31;;;24.99;50.90
37066;BME280;22981;43.080;25.550;2023-06-05T11:27:06;99901.74;;;25.01;50.79
37066;BME280;22981;43.080;25.550;2023-06-05T11:29:35;99903.39;;;25.02;49.86
37066;BME280;22981;43.080;25.550;2023-06-05T11:32:11;99898.96;;;25.03;49.03
37066;BME280;22981;43.080;25.550;2023-06-05T11:34:40;99899.45;;;25.05;49.11
37066;BME280;22981;43.080;25.550;2023-06-05T11:37:17;99900.14;;;25.13;48.92
37066;BME280;22981;43.080;25.550;2023-06-05T11:39:45;99900.14;;;25.13;48.84
37066;BME280;22981;43.080;25.550;2023-06-05T11:42:14;99898.36;;;25.06;49.14
37066;BME280;22981;43.080;25.550;2023-06-05T11:44:41;99895.30;;;25.10;48.95
37066;BME280;22981;43.080;25.550;2023-06-05T11:47:21;99899.19;;;25.20;48.23
37066;BME280;22981;43.080;25.550;2023-06-05T11:49:39;99893.55;;;25.28;47.92
37066;BME280;22981;43.080;25.550;2023-06-05T11:52:16;99896.94;;;25.36;47.53
37066;BME280;22981;43.080;25.550;2023-06-05T11:54:37;99891.09;;;25.40;47.46
37066;BME280;22981;43.080;25.550;2023-06-05T11:57:06;99891.17;;;25.49;46.88
37066;BME280;22981;43.080;25.550;2023-06-05T11:59:35;99891.73;;;25.48;46.85
37066;BME280;22981;43.080;25.550;2023-06-05T12:02:04;99886.17;;;25.51;47.04
37066;BME280;22981;43.080;25.550;2023-06-05T12:04:32;99894.48;;;25.48;47.39
37066;BME280;22981;43.080;25.550;2023-06-05T12:07:01;99888.08;;;25.39;46.21
37066;BME280;22981;43.080;25.550;2023-06-05T12:09:29;99883.07;;;25.30;46.36
37066;BME280;22981;43.080;25.550;2023-06-05T12:12:07;99880.20;;;25.24;46.06
37066;BME280;22981;43.080;25.550;2023-06-05T12:14:35;99889.26;;;25.11;46.50
37066;BME280;22981;43.080;25.550;2023-06-05T12:17:10;99880.19;;;24.96;46.91
37066;BME280;22981;43.080;25.550;2023-06-05T12:19:37;99883.14;;;24.86;46.81
37066;BME280;22981;43.080;25.550;2023-06-05T12:22:07;99881.17;;;24.76;47.07
37066;BME280;22981;43.080;25.550;2023-06-05T12:24:35;99881.53;;;24.71;46.43
37066;BME280;22981;43.080;25.550;2023-06-05T12:27:03;99880.44;;;24.70;46.96
37066;BME280;22981;43.080;25.550;2023-06-05T12:29:34;99877.35;;;24.74;46.72
37066;BME280;22981;43.080;25.550;2023-06-05T12:32:21;99875.03;;;24.81;46.40
37066;BME280;22981;43.080;25.550;2023-06-05T12:34:50;99875.27;;;24.96;46.15
37066;BME280;22981;43.080;25.550;2023-06-05T12:37:25;99876.41;;;25.09;45.72
37066;BME280;22981;43.080;25.550;2023-06-05T12:39:55;99878.95;;;25.19;45.53
37066;BME280;22981;43.080;25.550;2023-06-05T12:42:24;99877.11;;;25.28;45.52
37066;BME280;22981;43.080;25.550;2023-06-05T12:44:52;99883.80;;;25.36;44.79
37066;BME280;22981;43.080;25.550;2023-06-05T12:47:20;99883.16;;;25.39;43.61
37066;BME280;22981;43.080;25.550;2023-06-05T12:49:48;99882.67;;;25.37;44.21
37066;BME280;22981;43.080;25.550;2023-06-05T12:52:16;99884.84;;;25.37;44.00
37066;BME280;22981;43.080;25.550;2023-06-05T12:54:45;99880.49;;;25.36;43.92
37066;BME280;22981;43.080;25.550;2023-06-05T12:57:12;99876.06;;;25.38;44.02
37066;BME280;22981;43.080;25.550;2023-06-05T12:59:40;99870.46;;;25.43;43.70
37066;BME280;22981;43.080;25.550;2023-06-05T13:02:07;99878.88;;;25.46;43.44
37066;BME280;22981;43.080;25.550;2023-06-05T13:04:35;99872.03;;;25.46;43.16
37066;BME280;22981;43.080;25.550;2023-06-05T13:07:03;99869.66;;;25.42;43.04
37066;BME280;22981;43.080;25.550;2023-06-05T13:09:32;99871.09;;;25.40;43.51
37066;BME280;22981;43.080;25.550;2023-06-05T13:12:01;99874.89;;;25.41;43.02
37066;BME280;22981;43.080;25.550;2023-06-05T13:14:33;99868.04;;;25.41;42.48
37066;BME280;22981;43.080;25.550;2023-06-05T13:17:01;99870.46;;;25.43;42.94
37066;BME280;22981;43.080;25.550;2023-06-05T13:19:28;99861.67;;;25.43;43.39
37066;BME280;22981;43.080;25.550;2023-06-05T13:21:56;99861.14;;;25.44;43.68
37066;BME280;22981;43.080;25.550;2023-06-05T13:24:23;99858.45;;;25.41;43.38
37066;BME280;22981;43.080;25.550;2023-06-05T13:26:51;99859.69;;;25.35;42.03
37066;BME280;22981;43.080;25.550;2023-06-05T13:29:18;99855.75;;;25.28;41.70
37066;BME280;22981;43.080;25.550;2023-06-05T13:31:46;99861.47;;;25.29;41.63
37066;BME280;22981;43.080;25.550;2023-06-05T13:34:14;99862.03;;;25.28;41.78
37066;BME280;22981;43.080;25.550;2023-06-05T13:36:41;99860.95;;;25.27;41.18
37066;BME280;22981;43.080;25.550;2023-06-05T13:39:09;99856.11;;;25.23;40.96
37066;BME280;22981;43.080;25.550;2023-06-05T13:41:37;99857.48;;;25.23;40.92
37066;BME280;22981;43.080;25.550;2023-06-05T13:44:04;99861.88;;;25.22;41.19
37066;BME280;22981;43.080;25.550;2023-06-05T13:46:32;99853.93;;;25.23;41.51
37066;BME280;22981;43.080;25.550;2023-06-05T13:49:01;99855.23;;;25.26;41.50
37066;BME280;22981;43.080;25.550;2023-06-05T13:51:28;99857.72;;;25.25;40.74
37066;BME280;22981;43.080;25.550;2023-06-05T13:53:56;99849.30;;;25.21;39.89
37066;BME280;22981;43.080;25.550;2023-06-05T13:56:23;99844.81;;;25.14;39.46
37066;BME280;22981;43.080;25.550;2023-06-05T13:58:51;99848.20;;;25.08;39.97
37066;BME280;22981;43.080;25.550;2023-06-05T14:01:21;99850.42;;;25.06;39.52
37066;BME280;22981;43.080;25.550;2023-06-05T14:03:48;99845.80;;;25.04;40.23
37066;BME280;22981;43.080;25.550;2023-06-05T14:06:17;99845.30;;;25.02;40.27
37066;BME280;22981;43.080;25.550;2023-06-05T14:08:46;99845.06;;;25.01;40.02
37066;BME280;22981;43.080;25.550;2023-06-05T14:11:14;99843.97;;;24.99;40.45
37066;BME280;22981;43.080;25.550;2023-06-05T14:13:41;99845.09;;;24.98;39.99
37066;BME280;22981;43.080;25.550;2023-06-05T14:16:09;99841.80;;;24.99;40.22
37066;BME280;22981;43.080;25.550;2023-06-05T14:18:38;99838.25;;;24.98;40.45
37066;BME280;22981;43.080;25.550;2023-06-05T14:21:06;99839.63;;;24.98;40.46
37066;BME280;22981;43.080;25.550;2023-06-05T14:23:33;99835.76;;;24.99;40.82
37066;BME280;22981;43.080;25.550;2023-06-05T14:26:01;99834.14;;;24.98;40.49
37066;BME280;22981;43.080;25.550;2023-06-05T14:28:28;99833.34;;;24.98;40.32
37066;BME280;22981;43.080;25.550;2023-06-05T14:30:56;99830.28;;;24.99;40.99
37066;BME280;22981;43.080;25.550;2023-06-05T14:33:23;99835.20;;;25.00;41.14
37066;BME280;22981;43.080;25.550;2023-06-05T14:35:51;99827.79;;;25.01;41.26
37066;BME280;22981;43.080;25.550;2023-06-05T14:38:19;99821.50;;;25.00;41.39
37066;BME280;22981;43.080;25.550;2023-06-05T14:40:46;99822.67;;;24.96;41.71
37066;BME280;22981;43.080;25.550;2023-06-05T14:43:15;99820.81;;;24.94;41.75
37066;BME280;22981;43.080;25.550;2023-06-05T14:45:43;99820.56;;;24.93;41.65
37066;BME280;22981;43.080;25.550;2023-06-05T14:48:10;99815.94;;;24.91;41.46
37066;BME280;22981;43.080;25.550;2023-06-05T14:50:38;99804.78;;;24.88;41.86
37066;BME280;22981;43.080;25.550;2023-06-05T14:53:06;99807.34;;;24.84;41.83
37066;BME280;22981;43.080;25.550;2023-06-05T14:55:33;99801.42;;;24.80;42.22
37066;BME280;22981;43.080;25.550;2023-06-05T14:58:02;99803.39;;;24.77;42.25
37066;BME280;22981;43.080;25.550;2023-06-05T15:00:31;99797.95;;;24.74;42.08
37066;BME280;22981;43.080;25.550;2023-06-05T15:02:59;99798.02;;;24.71;42.35
37066;BME280;22981;43.080;25.550;2023-06-05T15:05:27;99797.50;;;24.69;42.35
37066;BME280;22981;43.080;25.550;2023-06-05T15:07:54;99796.20;;;24.67;42.63
37066;BME280;22981;43.080;25.550;2023-06-05T15:10:22;99800.84;;;24.66;42.49
37066;BME280;22981;43.080;25.550;2023-06-05T15:12:49;99802.28;;;24.64;42.72
37066;BME280;22981;43.080;25.550;2023-06-05T15:15:19;99795.23;;;24.60;42.37
37066;BME280;22981;43.080;25.550;2023-06-05T15:17:46;99794.73;;;24.58;42.39
37066;BME280;22981;43.080;25.550;2023-06-05T15:20:14;99795.34;;;24.55;42.25
37066;BME280;22981;43.080;25.550;2023-06-05T15:22:42;99793.72;;;24.54;42.26
37066;BME280;22981;43.080;25.550;2023-06-05T15:25:09;99794.22;;;24.56;43.21
37066;BME280;22981;43.080;25.550;2023-06-05T15:27:37;99788.25;;;24.54;43.11
37066;BME280;22981;43.080;25.550;2023-06-05T15:30:05;99786.11;;;24.51;42.94
37066;BME280;22981;43.080;25.550;2023-06-05T15:32:33;99790.25;;;24.48;43.12
37066;BME280;22981;43.080;25.550;2023-06-05T15:35:01;99786.01;;;24.42;43.48
37066;BME280;22981;43.080;25.550;2023-06-05T15:37:28;99789.91;;;24.39;43.70
37066;BME280;22981;43.080;25.550;2023-06-05T15:39:56;99786.92;;;24.35;43.97
37066;BME280;22981;43.080;25.550;2023-06-05T15:42:34;99787.52;;;24.32;44.03
37066;BME280;22981;43.080;25.550;2023-06-05T15:45:12;99791.70;;;24.30;44.38
37066;BME280;22981;43.080;25.550;2023-06-05T15:47:41;99788.44;;;24.28;44.72
37066;BME280;22981;43.080;25.550;2023-06-05T15:50:09;99778.92;;;24.25;45.06
37066;BME280;22981;43.080;25.550;2023-06-05T15:52:38;99782.50;;;24.23;45.00
37066;BME280;22981;43.080;25.550;2023-06-05T15:55:07;99779.84;;;24.20;45.37
37066;BME280;22981;43.080;25.550;2023-06-05T15:57:35;99778.25;;;24.17;45.63
37066;BME280;22981;43.080;25.550;2023-06-05T16:00:03;99772.61;;;24.11;45.77
37066;BME280;22981;43.080;25.550;2023-06-05T16:02:31;99776.81;;;24.06;45.79
37066;BME280;22981;43.080;25.550;2023-06-05T16:04:58;99775.55;;;24.01;45.93
37066;BME280;22981;43.080;25.550;2023-06-05T16:07:26;99779.43;;;23.97;46.00
37066;BME280;22981;43.080;25.550;2023-06-05T16:09:53;99787.73;;;23.92;46.52
37066;BME280;22981;43.080;25.550;2023-06-05T16:12:21;99792.73;;;23.87;46.78
37066;BME280;22981;43.080;25.550;2023-06-05T16:14:48;99785.74;;;23.81;47.09
37066;BME280;22981;43.080;25.550;2023-06-05T16:17:17;99780.89;;;23.76;47.05
37066;BME280;22981;43.080;25.550;2023-06-05T16:19:44;99788.37;;;23.70;46.69
37066;BME280;22981;43.080;25.550;2023-06-05T16:22:12;99781.88;;;23.63;46.28
37066;BME280;22981;43.080;25.550;2023-06-05T16:24:40;99778.73;;;23.56;46.29
37066;BME280;22981;43.080;25.550;2023-06-05T16:27:07;99774.76;;;23.48;46.17
37066;BME280;22981;43.080;25.550;2023-06-05T16:29:35;99766.92;;;23.42;45.83
37066;BME280;22981;43.080;25.550;2023-06-05T16:32:02;99773.03;;;23.36;45.64
37066;BME280;22981;43.080;25.550;2023-06-05T16:34:30;99769.30;;;23.30;45.01
37066;BME280;22981;43.080;25.550;2023-06-05T16:36:58;99768.01;;;23.24;45.13
37066;BME280;22981;43.080;25.550;2023-06-05T16:39:25;99771.07;;;23.20;45.29
37066;BME280;22981;43.080;25.550;2023-06-05T16:41:53;99772.27;;;23.14;45.75
37066;BME280;22981;43.080;25.550;2023-06-05T16:44:21;99775.64;;;23.09;46.03
37066;BME280;22981;43.080;25.550;2023-06-05T16:46:48;99769.16;;;23.02;46.28
37066;BME280;22981;43.080;25.550;2023-06-05T16:49:16;99771.41;;;22.97;46.38
37066;BME280;22981;43.080;25.550;2023-06-05T16:51:44;99772.30;;;22.93;46.40
37066;BME280;22981;43.080;25.550;2023-06-05T16:54:11;99771.23;;;22.91;46.47
37066;BME280;22981;43.080;25.550;2023-06-05T16:56:39;99771.30;;;22.84;46.74
37066;BME280;22981;43.080;25.550;2023-06-05T16:59:11;99772.45;;;22.78;47.11
37066;BME280;22981;43.080;25.550;2023-06-05T17:01:39;99775.56;;;22.71;47.56
37066;BME280;22981;43.080;25.550;2023-06-05T17:04:08;99780.85;;;22.62;48.15
37066;BME280;22981;43.080;25.550;2023-06-05T17:06:36;99780.08;;;22.57;48.61
37066;BME280;22981;43.080;25.550;2023-06-05T17:09:04;99777.72;;;22.50;49.16
37066;BME280;22981;43.080;25.550;2023-06-05T17:11:32;99776.99;;;22.42;49.66
37066;BME280;22981;43.080;25.550;2023-06-05T17:14:00;99774.59;;;22.35;49.70
37066;BME280;22981;43.080;25.550;2023-06-05T17:16:27;99779.61;;;22.28;49.57
37066;BME280;22981;43.080;25.550;2023-06-05T17:18:55;99775.58;;;22.23;49.58
37066;BME280;22981;43.080;25.550;2023-06-05T17:21:22;99778.88;;;22.20;49.68
37066;BME280;22981;43.080;25.550;2023-06-05T17:23:50;99778.93;;;22.15;49.92
37066;BME280;22981;43.080;25.550;2023-06-05T17:26:18;99777.31;;;22.09;50.19
37066;BME280;22981;43.080;25.550;2023-06-05T17:28:45;99777.06;;;22.05;50.27
37066;BME280;22981;43.080;25.550;2023-06-05T17:31:14;99769.74;;;22.03;50.32
37066;BME280;22981;43.080;25.550;2023-06-05T17:33:42;99769.80;;;21.98;50.08
37066;BME280;22981;43.080;25.550;2023-06-05T17:36:09;99766.27;;;21.95;50.13
37066;BME280;22981;43.080;25.550;2023-06-05T17:38:37;99767.14;;;21.90;50.28
37066;BME280;22981;43.080;25.550;2023-06-05T17:41:05;99768.25;;;21.87;50.44
37066;BME280;22981;43.080;25.550;2023-06-05T17:43:32;99766.95;;;21.82;50.48
37066;BME280;22981;43.080;25.550;2023-06-05T17:46:00;99765.63;;;21.77;50.47
37066;BME280;22981;43.080;25.550;2023-06-05T17:48:27;99768.12;;;21.70;50.42
37066;BME280;22981;43.080;25.550;2023-06-05T17:50:55;99775.53;;;21.67;50.37
37066;BME280;22981;43.080;25.550;2023-06-05T17:53:23;99776.39;;;21.63;50.47
37066;BME280;22981;43.080;25.550;2023-06-05T17:55:51;99788.11;;;21.58;50.72
37066;BME280;22981;43.080;25.550;2023-06-05T17:58:18;99792.53;;;21.54;51.00
37066;BME280;22981;43.080;25.550;2023-06-05T18:00:46;99791.98;;;21.49;51.26
37066;BME280;22981;43.080;25.550;2023-06-05T18:03:14;99797.22;;;21.46;51.28
37066;BME280;22981;43.080;25.550;2023-06-05T18:05:41;99798.58;;;21.43;51.24
37066;BME280;22981;43.080;25.550;2023-06-05T18:08:09;99800.80;;;21.39;51.19
37066;BME280;22981;43.080;25.550;2023-06-05T18:10:39;99808.71;;;21.35;51.41
37066;BME280;22981;43.080;25.550;2023-06-05T18:13:06;99808.98;;;21.31;51.53
37066;BME280;22981;43.080;25.550;2023-06-05T18:15:34;99817.99;;;21.29;51.66
37066;BME280;22981;43.080;25.550;2023-06-05T18:18:02;99819.06;;;21.28;51.80
37066;BME280;22981;43.080;25.550;2023-06-05T18:20:29;99822.62;;;21.26;51.99
37066;BME280;22981;43.080;25.550;2023-06-05T18:22:57;99831.35;;;21.23;52.04
37066;BME280;22981;43.080;25.550;2023-06-05T18:25:24;99830.31;;;21.16;52.14
37066;BME280;22981;43.080;25.550;2023-06-05T18:27:54;99833.08;;;21.11;52.40
37066;BME280;22981;43.080;25.550;2023-06-05T18:30:23;99840.42;;;21.06;52.80
37066;BME280;22981;43.080;25.550;2023-06-05T18:32:51;99842.34;;;21.03;53.03
37066;BME280;22981;43.080;25.550;2023-06-05T18:35:18;99849.72;;;20.99;53.17
37066;BME280;22981;43.080;25.550;2023-06-05T18:37:46;99845.67;;;20.94;53.42
37066;BME280;22981;43.080;25.550;2023-06-05T18:40:14;99854.38;;;20.91;53.58
37066;BME280;22981;43.080;25.550;2023-06-05T18:42:42;99859.30;;;20.87;53.63
37066;BME280;22981;43.080;25.550;2023-06-05T18:45:10;99858.48;;;20.84;53.78
37066;BME280;22981;43.080;25.550;2023-06-05T18:47:40;99869.92;;;20.83;53.90
37066;BME280;22981;43.080;25.550;2023-06-05T18:50:09;99867.48;;;20.82;54.06
37066;BME280;22981;43.080;25.550;2023-06-05T18:52:39;99872.64;;;20.81;54.09
37066;BME280;22981;43.080;25.550;2023-06-05T18:55:07;99884.65;;;20.77;54.15
37066;BME280;22981;43.080;25.550;2023-06-05T18:57:35;99890.09;;;20.77;54.30
37066;BME280;22981;43.080;25.550;2023-06-05T19:00:06;99894.98;;;20.75;54.38
37066;BME280;22981;43.080;25.550;2023-06-05T19:02:34;99897.17;;;20.73;54.52
37066;BME280;22981;43.080;25.550;2023-06-05T19:05:01;99900.70;;;20.71;54.61
37066;BME280;22981;43.080;25.550;2023-06-05T19:07:39;99902.32;;;20.72;54.48
37066;BME280;22981;43.080;25.550;2023-06-05T19:10:06;99904.49;;;20.72;54.17
37066;BME280;22981;43.080;25.550;2023-06-05T19:12:35;99904.23;;;20.71;54.08
37066;BME280;22981;43.080;25.550;2023-06-05T19:15:04;99903.98;;;20.73;53.79
37066;BME280;22981;43.080;25.550;2023-06-05T19:17:32;99909.39;;;20.75;53.56
37066;BME280;22981;43.080;25.550;2023-06-05T19:19:59;99908.58;;;20.75;53.50
37066;BME280;22981;43.080;25.550;2023-06-05T19:22:27;99906.67;;;20.75;52.86
37066;BME280;22981;43.080;25.550;2023-06-05T19:24:54;99904.22;;;20.79;52.15
37066;BME280;22981;43.080;25.550;2023-06-05T19:27:22;99901.50;;;20.79;52.00